sensor_id;sensor_type;location;lat;lon;timestamp;pressure;altitude;pressure_sealevel;temperature;humidity
62725;BME280;49026;52.600;4.694;2023-03-18T00:02:19;100758.97;;;7.98;70.45
62725;BME280;49026;52.600;4.694;2023-03-18T00:04:46;100758.25;;;7.93;71.24
62725;BME280;49026;52.600;4.694;2023-03-18T00:07:12;100754.06;;;7.87;70.82
62725;BME280;49026;52.600;4.694;2023-03-18T00:09:37;100761.25;;;7.81;71.10
62725;BME280;49026;52.600;4.694;2023-03-18T00:12:03;100762.22;;;7.76;70.93
62725;BME280;49026;52.600;4.694;2023-03-18T00:14:29;100764.13;;;7.71;70.52
62725;BME280;49026;52.600;4.694;2023-03-18T00:16:57;100756.47;;;7.65;71.20
62725;BME280;49026;52.600;4.694;2023-03-18T00:19:25;100747.84;;;7.61;70.82
62725;BME280;49026;52.600;4.694;2023-03-18T00:21:50;100749.72;;;7.56;71.05
62725;BME280;49026;52.600;4.694;2023-03-18T00:24:15;100741.13;;;7.53;70.53
62725;BME280;49026;52.600;4.694;2023-03-18T00:26:41;100742.88;;;7.52;70.92
62725;BME280;49026;52.600;4.694;2023-03-18T00:29:08;100745.53;;;7.51;70.75
62725;BME280;49026;52.600;4.694;2023-03-18T00:31:34;100740.41;;;7.48;70.62
62725;BME280;49026;52.600;4.694;2023-03-18T00:34:04;100737.91;;;7.43;70.76
62725;BME280;49026;52.600;4.694;2023-03-18T00:36:32;100751.13;;;7.38;71.19
62725;BME280;49026;52.600;4.694;2023-03-18T00:38:58;100750.44;;;7.32;71.13
62725;BME280;49026;52.600;4.694;2023-03-18T00:41:30;100756.78;;;7.23;70.69
62725;BME280;49026;52.600;4.694;2023-03-18T00:43:57;100752.56;;;7.17;71.03
62725;BME280;49026;52.600;4.694;2023-03-18T00:46:27;100767.50;;;7.14;71.16
62725;BME280;49026;52.600;4.694;2023-03-18T00:48:57;100767.56;;;7.11;70.55
62725;BME280;49026;52.600;4.694;2023-03-18T00:51:25;100766.88;;;7.04;70.92
62725;BME280;49026;52.600;4.694;2023-03-18T00:53:55;100767.97;;;6.95;70.51
62725;BME280;49026;52.600;4.694;2023-03-18T00:56:21;100766.41;;;6.88;70.84
62725;BME280;49026;52.600;4.694;2023-03-18T00:58:49;100776.13;;;6.83;70.91
62725;BME280;49026;52.600;4.694;2023-03-18T01:01:15;100761.47;;;6.77;71.19
62725;BME280;49026;52.600;4.694;2023-03-18T01:03:43;100772.88;;;6.73;70.90
62725;BME280;49026;52.600;4.694;2023-03-18T01:06:10;100773.06;;;6.67;70.65
62725;BME280;49026;52.600;4.694;2023-03-18T01:08:39;100760.94;;;6.63;71.11
62725;BME280;49026;52.600;4.694;2023-03-18T01:11:05;100764.50;;;6.60;70.91
62725;BME280;49026;52.600;4.694;2023-03-18T01:13:32;100768.91;;;6.58;70.83
62725;BME280;49026;52.600;4.694;2023-03-18T01:15:58;100775.88;;;6.58;70.86
62725;BME280;49026;52.600;4.694;2023-03-18T01:18:23;100775.97;;;6.53;70.59
62725;BME280;49026;52.600;4.694;2023-03-18T01:20:49;100779.53;;;6.51;71.02
62725;BME280;49026;52.600;4.694;2023-03-18T01:23:15;100784.78;;;6.49;70.74
62725;BME280;49026;52.600;4.694;2023-03-18T01:25:43;100779.66;;;6.46;70.43
62725;BME280;49026;52.600;4.694;2023-03-18T01:28:14;100784.94;;;6.43;70.86
62725;BME280;49026;52.600;4.694;2023-03-18T01:30:41;100771.03;;;6.42;71.05
62725;BME280;49026;52.600;4.694;2023-03-18T01:33:07;100774.44;;;6.46;70.91
62725;BME280;49026;52.600;4.694;2023-03-18T01:35:35;100772.63;;;6.48;71.01
62725;BME280;49026;52.600;4.694;2023-03-18T01:38:03;100766.50;;;6.51;71.04
62725;BME280;49026;52.600;4.694;2023-03-18T01:40:30;100769.09;;;6.51;70.42
62725;BME280;49026;52.600;4.694;2023-03-18T01:43:12;100758.75;;;6.46;70.66
62725;BME280;49026;52.600;4.694;2023-03-18T01:45:38;100764.00;;;6.44;70.99
62725;BME280;49026;52.600;4.694;2023-03-18T01:48:04;100768.41;;;6.42;70.90
62725;BME280;49026;52.600;4.694;2023-03-18T01:50:34;100765.00;;;6.40;70.59
62725;BME280;49026;52.600;4.694;2023-03-18T01:53:11;100764.13;;;6.40;71.22
62725;BME280;49026;52.600;4.694;2023-03-18T01:55:40;100771.13;;;6.38;70.71
62725;BME280;49026;52.600;4.694;2023-03-18T01:58:31;100765.13;;;6.34;70.84
62725;BME280;49026;52.600;4.694;2023-03-18T02:03:42;100773.06;;;6.29;70.55
62725;BME280;49026;52.600;4.694;2023-03-18T02:06:11;100764.44;;;6.27;70.88
62725;BME280;49026;52.600;4.694;2023-03-18T02:08:38;100772.28;;;6.26;71.01
62725;BME280;49026;52.600;4.694;2023-03-18T02:11:05;100759.28;;;6.24;71.05
62725;BME280;49026;52.600;4.694;2023-03-18T02:13:36;100762.78;;;6.23;71.21
62725;BME280;49026;52.600;4.694;2023-03-18T02:16:08;100761.06;;;6.22;70.65
62725;BME280;49026;52.600;4.694;2023-03-18T02:18:37;100767.16;;;6.21;71.03
62725;BME280;49026;52.600;4.694;2023-03-18T02:21:34;100771.59;;;6.18;70.77
62725;BME280;49026;52.600;4.694;2023-03-18T02:26:49;100771.69;;;6.13;71.04
62725;BME280;49026;52.600;4.694;2023-03-18T02:29:17;100770.00;;;6.12;70.97
62725;BME280;49026;52.600;4.694;2023-03-18T02:31:44;100772.63;;;6.12;71.02
62725;BME280;49026;52.600;4.694;2023-03-18T02:34:12;100773.44;;;6.14;70.79
62725;BME280;49026;52.600;4.694;2023-03-18T02:36:38;100782.06;;;6.16;71.21
62725;BME280;49026;52.600;4.694;2023-03-18T02:39:05;100785.59;;;6.15;71.49
62725;BME280;49026;52.600;4.694;2023-03-18T02:41:33;100795.13;;;6.16;71.33
62725;BME280;49026;52.600;4.694;2023-03-18T02:43:59;100794.25;;;6.17;71.05
62725;BME280;49026;52.600;4.694;2023-03-18T02:46:33;100789.84;;;6.19;72.21
62725;BME280;49026;52.600;4.694;2023-03-18T02:49:05;100790.59;;;6.24;71.75
62725;BME280;49026;52.600;4.694;2023-03-18T02:51:32;100794.88;;;6.27;71.95
62725;BME280;49026;52.600;4.694;2023-03-18T02:54:12;100799.16;;;6.29;72.00
62725;BME280;49026;52.600;4.694;2023-03-18T02:56:39;100802.63;;;6.32;71.40
62725;BME280;49026;52.600;4.694;2023-03-18T02:59:05;100797.31;;;6.35;71.96
62725;BME280;49026;52.600;4.694;2023-03-18T03:01:32;100799.88;;;6.36;72.23
62725;BME280;49026;52.600;4.694;2023-03-18T03:03:58;100796.38;;;6.37;71.91
62725;BME280;49026;52.600;4.694;2023-03-18T03:06:23;100789.41;;;6.38;72.06
62725;BME280;49026;52.600;4.694;2023-03-18T03:08:50;100795.44;;;6.40;72.14
62725;BME280;49026;52.600;4.694;2023-03-18T03:11:15;100788.47;;;6.42;71.97
62725;BME280;49026;52.600;4.694;2023-03-18T03:13:41;100795.31;;;6.46;72.19
62725;BME280;49026;52.600;4.694;2023-03-18T03:16:09;100801.34;;;6.48;72.14
62725;BME280;49026;52.600;4.694;2023-03-18T03:18:34;100799.47;;;6.53;71.85
62725;BME280;49026;52.600;4.694;2023-03-18T03:21:00;100794.16;;;6.58;72.29
62725;BME280;49026;52.600;4.694;2023-03-18T03:23:26;100794.94;;;6.61;72.15
62725;BME280;49026;52.600;4.694;2023-03-18T03:25:52;100795.75;;;6.65;72.20
62725;BME280;49026;52.600;4.694;2023-03-18T03:28:17;100802.56;;;6.71;72.34
62725;BME280;49026;52.600;4.694;2023-03-18T03:30:43;100792.84;;;6.76;72.79
62725;BME280;49026;52.600;4.694;2023-03-18T03:33:10;100796.19;;;6.81;72.09
62725;BME280;49026;52.600;4.694;2023-03-18T03:35:36;100796.09;;;6.85;72.36
62725;BME280;49026;52.600;4.694;2023-03-18T03:38:02;100799.44;;;6.91;72.46
62725;BME280;49026;52.600;4.694;2023-03-18T03:40:28;100801.09;;;6.93;72.84
62725;BME280;49026;52.600;4.694;2023-03-18T03:42:56;100807.13;;;6.97;73.02
62725;BME280;49026;52.600;4.694;2023-03-18T03:45:23;100808.75;;;7.01;72.37
62725;BME280;49026;52.600;4.694;2023-03-18T03:47:49;100814.75;;;7.04;73.33
62725;BME280;49026;52.600;4.694;2023-03-18T03:50:18;100809.44;;;7.08;72.73
62725;BME280;49026;52.600;4.694;2023-03-18T03:52:44;100813.72;;;7.12;73.33
62725;BME280;49026;52.600;4.694;2023-03-18T03:55:12;100816.22;;;7.15;73.42
62725;BME280;49026;52.600;4.694;2023-03-18T03:57:38;100815.25;;;7.19;73.10
62725;BME280;49026;52.600;4.694;2023-03-18T04:00:08;100816.91;;;7.21;72.71
62725;BME280;49026;52.600;4.694;2023-03-18T04:02:38;100813.38;;;7.24;73.32
62725;BME280;49026;52.600;4.694;2023-03-18T04:05:08;100811.63;;;7.24;73.20
62725;BME280;49026;52.600;4.694;2023-03-18T04:07:35;100809.97;;;7.22;72.93
62725;BME280;49026;52.600;4.694;2023-03-18T04:10:00;100810.84;;;7.21;73.38
62725;BME280;49026;52.600;4.694;2023-03-18T04:12:27;100824.78;;;7.20;73.45
62725;BME280;49026;52.600;4.694;2023-03-18T04:14:52;100823.91;;;7.21;73.43
62725;BME280;49026;52.600;4.694;2023-03-18T04:17:18;100828.25;;;7.22;73.64
62725;BME280;49026;52.600;4.694;2023-03-18T04:19:43;100828.19;;;7.25;73.12
62725;BME280;49026;52.600;4.694;2023-03-18T04:22:08;100841.09;;;7.30;73.28
62725;BME280;49026;52.600;4.694;2023-03-18T04:24:34;100838.38;;;7.34;72.81
62725;BME280;49026;52.600;4.694;2023-03-18T04:27:00;100838.28;;;7.37;73.07
62725;BME280;49026;52.600;4.694;2023-03-18T04:29:25;100836.41;;;7.42;73.72
62725;BME280;49026;52.600;4.694;2023-03-18T04:31:53;100830.19;;;7.47;73.41
62725;BME280;49026;52.600;4.694;2023-03-18T04:34:19;100834.38;;;7.54;73.69
62725;BME280;49026;52.600;4.694;2023-03-18T04:36:44;100832.44;;;7.60;73.34
62725;BME280;49026;52.600;4.694;2023-03-18T04:39:12;100834.94;;;7.65;73.57
62725;BME280;49026;52.600;4.694;2023-03-18T04:41:37;100838.34;;;7.67;73.63
62725;BME280;49026;52.600;4.694;2023-03-18T04:44:04;100844.34;;;7.71;73.71
62725;BME280;49026;52.600;4.694;2023-03-18T04:46:29;100841.66;;;7.74;73.55
62725;BME280;49026;52.600;4.694;2023-03-18T04:48:56;100844.22;;;7.75;73.84
62725;BME280;49026;52.600;4.694;2023-03-18T04:51:23;100841.63;;;7.75;74.00
62725;BME280;49026;52.600;4.694;2023-03-18T04:53:48;100836.34;;;7.77;73.57
62725;BME280;49026;52.600;4.694;2023-03-18T04:56:13;100845.88;;;7.78;73.89
62725;BME280;49026;52.600;4.694;2023-03-18T04:58:41;100844.91;;;7.82;74.17
62725;BME280;49026;52.600;4.694;2023-03-18T05:01:06;100836.00;;;7.88;74.07
62725;BME280;49026;52.600;4.694;2023-03-18T05:03:31;100849.72;;;7.96;73.39
62725;BME280;49026;52.600;4.694;2023-03-18T05:05:56;100846.06;;;8.02;73.21
62725;BME280;49026;52.600;4.694;2023-03-18T05:08:22;100840.56;;;8.11;73.37
62725;BME280;49026;52.600;4.694;2023-03-18T05:10:55;100844.66;;;8.20;73.56
62725;BME280;49026;52.600;4.694;2023-03-18T05:13:22;100841.88;;;8.26;73.37
62725;BME280;49026;52.600;4.694;2023-03-18T05:15:48;100856.50;;;8.33;73.91
62725;BME280;49026;52.600;4.694;2023-03-18T05:18:13;100856.34;;;8.38;73.47
62725;BME280;49026;52.600;4.694;2023-03-18T05:20:40;100862.41;;;8.40;73.66
62725;BME280;49026;52.600;4.694;2023-03-18T05:23:06;100857.13;;;8.41;73.80
62725;BME280;49026;52.600;4.694;2023-03-18T05:25:31;100863.19;;;8.43;75.33
62725;BME280;49026;52.600;4.694;2023-03-18T05:27:57;100864.03;;;8.45;74.37
62725;BME280;49026;52.600;4.694;2023-03-18T05:30:23;100856.97;;;8.47;73.82
62725;BME280;49026;52.600;4.694;2023-03-18T05:32:48;100863.00;;;8.49;74.34
62725;BME280;49026;52.600;4.694;2023-03-18T05:35:13;100867.31;;;8.52;74.10
62725;BME280;49026;52.600;4.694;2023-03-18T05:37:42;100869.00;;;8.53;73.66
62725;BME280;49026;52.600;4.694;2023-03-18T05:40:11;100862.91;;;8.52;73.76
62725;BME280;49026;52.600;4.694;2023-03-18T05:42:37;100865.47;;;8.54;73.89
62725;BME280;49026;52.600;4.694;2023-03-18T05:45:03;100865.47;;;8.54;73.44
62725;BME280;49026;52.600;4.694;2023-03-18T05:47:29;100868.91;;;8.56;74.05
62725;BME280;49026;52.600;4.694;2023-03-18T05:49:54;100877.56;;;8.58;74.18
62725;BME280;49026;52.600;4.694;2023-03-18T05:52:22;100878.31;;;8.62;74.39
62725;BME280;49026;52.600;4.694;2023-03-18T05:54:50;100879.16;;;8.64;74.02
62725;BME280;49026;52.600;4.694;2023-03-18T05:57:15;100882.56;;;8.66;74.29
62725;BME280;49026;52.600;4.694;2023-03-18T05:59:41;100892.97;;;8.69;74.48
62725;BME280;49026;52.600;4.694;2023-03-18T06:02:07;100890.31;;;8.70;74.46
62725;BME280;49026;52.600;4.694;2023-03-18T06:04:32;100895.50;;;8.72;74.81
62725;BME280;49026;52.600;4.694;2023-03-18T06:07:00;100892.78;;;8.74;74.58
62725;BME280;49026;52.600;4.694;2023-03-18T06:09:27;100892.78;;;8.74;74.47
62725;BME280;49026;52.600;4.694;2023-03-18T06:11:52;100887.56;;;8.74;74.41
62725;BME280;49026;52.600;4.694;2023-03-18T06:14:20;100888.44;;;8.74;74.51
62725;BME280;49026;52.600;4.694;2023-03-18T06:16:45;100883.25;;;8.73;74.50
62725;BME280;49026;52.600;4.694;2023-03-18T06:19:11;100894.63;;;8.71;74.36
62725;BME280;49026;52.600;4.694;2023-03-18T06:21:38;100903.41;;;8.70;74.70
62725;BME280;49026;52.600;4.694;2023-03-18T06:24:03;100905.13;;;8.70;74.49
62725;BME280;49026;52.600;4.694;2023-03-18T06:26:32;100895.59;;;8.69;74.39
62725;BME280;49026;52.600;4.694;2023-03-18T06:28:57;100892.03;;;8.70;74.87
62725;BME280;49026;52.600;4.694;2023-03-18T06:31:23;100900.72;;;8.72;74.36
62725;BME280;49026;52.600;4.694;2023-03-18T06:33:50;100896.25;;;8.76;74.88
62725;BME280;49026;52.600;4.694;2023-03-18T06:36:19;100902.25;;;8.79;74.76
62725;BME280;49026;52.600;4.694;2023-03-18T06:38:45;100902.94;;;8.84;75.00
62725;BME280;49026;52.600;4.694;2023-03-18T06:41:11;100908.91;;;8.89;75.00
62725;BME280;49026;52.600;4.694;2023-03-18T06:43:37;100907.00;;;8.95;75.08
62725;BME280;49026;52.600;4.694;2023-03-18T06:46:03;100912.03;;;9.01;74.85
62725;BME280;49026;52.600;4.694;2023-03-18T06:48:29;100927.63;;;9.05;74.95
62725;BME280;49026;52.600;4.694;2023-03-18T06:50:54;100917.06;;;9.07;74.95
62725;BME280;49026;52.600;4.694;2023-03-18T06:53:20;100928.28;;;9.12;74.93
62725;BME280;49026;52.600;4.694;2023-03-18T06:55:46;100930.72;;;9.17;74.87
62725;BME280;49026;52.600;4.694;2023-03-18T06:58:12;100935.94;;;9.18;75.28
62725;BME280;49026;52.600;4.694;2023-03-18T07:00:38;100939.34;;;9.20;75.63
62725;BME280;49026;52.600;4.694;2023-03-18T07:03:05;100932.22;;;9.25;75.55
62725;BME280;49026;52.600;4.694;2023-03-18T07:05:31;100925.84;;;9.33;75.04
62725;BME280;49026;52.600;4.694;2023-03-18T07:07:57;100936.94;;;9.41;74.79
62725;BME280;49026;52.600;4.694;2023-03-18T07:10:28;100941.84;;;9.50;75.06
62725;BME280;49026;52.600;4.694;2023-03-18T07:12:54;100935.50;;;9.57;75.33
62725;BME280;49026;52.600;4.694;2023-03-18T07:15:21;100937.84;;;9.65;75.68
62725;BME280;49026;52.600;4.694;2023-03-18T07:17:48;100946.38;;;9.72;75.84
62725;BME280;49026;52.600;4.694;2023-03-18T07:20:14;100946.97;;;9.80;75.17
62725;BME280;49026;52.600;4.694;2023-03-18T07:22:40;100952.78;;;9.88;75.65
62725;BME280;49026;52.600;4.694;2023-03-18T07:25:07;100948.19;;;9.95;75.49
62725;BME280;49026;52.600;4.694;2023-03-18T07:27:32;100944.47;;;10.00;75.65
62725;BME280;49026;52.600;4.694;2023-03-18T07:29:59;100957.44;;;10.05;75.86
62725;BME280;49026;52.600;4.694;2023-03-18T07:32:24;100963.31;;;10.12;76.02
62725;BME280;49026;52.600;4.694;2023-03-18T07:34:50;100958.75;;;10.17;76.07
62725;BME280;49026;52.600;4.694;2023-03-18T07:37:16;100961.97;;;10.25;75.86
62725;BME280;49026;52.600;4.694;2023-03-18T07:39:45;100959.03;;;10.34;76.02
62725;BME280;49026;52.600;4.694;2023-03-18T07:42:11;100972.69;;;10.44;76.22
62725;BME280;49026;52.600;4.694;2023-03-18T07:44:36;100963.03;;;10.45;75.89
62725;BME280;49026;52.600;4.694;2023-03-18T07:47:03;100964.06;;;10.41;76.78
62725;BME280;49026;52.600;4.694;2023-03-18T07:49:29;100972.06;;;10.37;77.02
62725;BME280;49026;52.600;4.694;2023-03-18T07:51:55;100973.66;;;10.42;76.65
62725;BME280;49026;52.600;4.694;2023-03-18T07:54:20;100971.59;;;10.50;76.86
62725;BME280;49026;52.600;4.694;2023-03-18T07:56:46;100979.13;;;10.59;76.50
62725;BME280;49026;52.600;4.694;2023-03-18T07:59:12;100975.41;;;10.65;77.89
62725;BME280;49026;52.600;4.694;2023-03-18T08:01:38;100984.72;;;10.73;77.40
62725;BME280;49026;52.600;4.694;2023-03-18T08:04:04;100982.66;;;10.82;77.32
62725;BME280;49026;52.600;4.694;2023-03-18T08:06:33;100981.38;;;10.92;77.10
62725;BME280;49026;52.600;4.694;2023-03-18T08:08:59;100984.56;;;11.00;77.16
62725;BME280;49026;52.600;4.694;2023-03-18T08:11:25;100982.25;;;11.15;77.56
62725;BME280;49026;52.600;4.694;2023-03-18T08:13:50;100990.16;;;11.35;77.30
62725;BME280;49026;52.600;4.694;2023-03-18T08:16:15;100976.53;;;11.68;77.91
62725;BME280;49026;52.600;4.694;2023-03-18T08:18:42;100993.63;;;11.78;76.55
62725;BME280;49026;52.600;4.694;2023-03-18T08:21:08;100989.28;;;11.77;76.63
62725;BME280;49026;52.600;4.694;2023-03-18T08:23:36;100989.09;;;11.82;76.55
62725;BME280;49026;52.600;4.694;2023-03-18T08:26:03;100976.53;;;12.09;78.56
62725;BME280;49026;52.600;4.694;2023-03-18T08:28:29;100979.84;;;12.33;78.26
62725;BME280;49026;52.600;4.694;2023-03-18T08:30:55;100977.72;;;12.60;77.74
62725;BME280;49026;52.600;4.694;2023-03-18T08:33:22;100977.06;;;12.93;77.89
62725;BME280;49026;52.600;4.694;2023-03-18T08:35:48;100979.16;;;13.23;77.84
62725;BME280;49026;52.600;4.694;2023-03-18T08:38:14;100977.34;;;13.60;78.35
62725;BME280;49026;52.600;4.694;2023-03-18T08:40:43;100991.78;;;13.88;78.34
62725;BME280;49026;52.600;4.694;2023-03-18T08:43:18;100995.16;;;14.25;78.83
62725;BME280;49026;52.600;4.694;2023-03-18T08:45:50;100991.97;;;14.52;78.97
62725;BME280;49026;52.600;4.694;2023-03-18T08:48:21;100978.19;;;14.78;79.09
62725;BME280;49026;52.600;4.694;2023-03-18T08:50:47;100983.97;;;15.01;79.13
62725;BME280;49026;52.600;4.694;2023-03-18T08:53:13;100981.25;;;15.18;78.77
62725;BME280;49026;52.600;4.694;2023-03-18T08:55:42;100984.09;;;15.46;79.06
62725;BME280;49026;52.600;4.694;2023-03-18T08:58:08;100997.19;;;15.63;78.51
62725;BME280;49026;52.600;4.694;2023-03-18T09:00:36;100995.28;;;15.81;78.95
62725;BME280;49026;52.600;4.694;2023-03-18T09:03:03;101001.38;;;15.98;76.51
62725;BME280;49026;52.600;4.694;2023-03-18T09:05:29;101001.38;;;16.26;78.42
62725;BME280;49026;52.600;4.694;2023-03-18T09:07:58;101006.50;;;16.29;76.11
62725;BME280;49026;52.600;4.694;2023-03-18T09:10:25;100998.09;;;16.37;77.91
62725;BME280;49026;52.600;4.694;2023-03-18T09:12:54;100988.88;;;16.57;76.89
62725;BME280;49026;52.600;4.694;2023-03-18T09:15:19;101000.88;;;16.92;77.57
62725;BME280;49026;52.600;4.694;2023-03-18T09:17:47;100993.69;;;17.21;73.93
62725;BME280;49026;52.600;4.694;2023-03-18T09:20:19;100992.59;;;17.23;71.28
62725;BME280;49026;52.600;4.694;2023-03-18T09:22:48;101003.28;;;17.36;74.26
62725;BME280;49026;52.600;4.694;2023-03-18T09:25:16;100986.66;;;17.60;76.11
62725;BME280;49026;52.600;4.694;2023-03-18T09:27:42;100994.91;;;17.95;76.46
62725;BME280;49026;52.600;4.694;2023-03-18T09:30:11;100998.53;;;18.20;76.31
62725;BME280;49026;52.600;4.694;2023-03-18T09:32:36;101001.72;;;18.00;75.31
62725;BME280;49026;52.600;4.694;2023-03-18T09:35:04;100995.84;;;17.82;74.08
62725;BME280;49026;52.600;4.694;2023-03-18T09:37:32;100997.38;;;17.58;75.06
62725;BME280;49026;52.600;4.694;2023-03-18T09:39:58;101003.28;;;17.36;75.81
62725;BME280;49026;52.600;4.694;2023-03-18T09:44:56;101001.63;;;16.94;75.21
62725;BME280;49026;52.600;4.694;2023-03-18T09:47:44;101003.47;;;16.50;74.86
62725;BME280;49026;52.600;4.694;2023-03-18T09:50:52;101015.72;;;15.79;74.75
62725;BME280;49026;52.600;4.694;2023-03-18T09:53:36;101021.25;;;15.28;75.07
62725;BME280;49026;52.600;4.694;2023-03-18T09:56:06;101010.63;;;14.98;75.01
62725;BME280;49026;52.600;4.694;2023-03-18T09:59:01;101009.75;;;14.81;74.77
62725;BME280;49026;52.600;4.694;2023-03-18T10:01:29;101015.56;;;14.72;74.67
62725;BME280;49026;52.600;4.694;2023-03-18T10:06:25;101015.41;;;14.58;74.18
62725;BME280;49026;52.600;4.694;2023-03-18T10:09:03;101021.97;;;14.51;73.74
62725;BME280;49026;52.600;4.694;2023-03-18T10:11:41;101019.03;;;14.57;74.07
62725;BME280;49026;52.600;4.694;2023-03-18T10:19:29;101029.88;;;14.35;73.43
62725;BME280;49026;52.600;4.694;2023-03-18T10:22:41;101029.78;;;14.36;73.38
62725;BME280;49026;52.600;4.694;2023-03-18T10:36:21;101020.06;;;15.80;74.15
62725;BME280;49026;52.600;4.694;2023-03-18T10:38:52;101017.75;;;16.33;72.96
62725;BME280;49026;52.600;4.694;2023-03-18T10:41:21;101015.00;;;16.63;72.75
62725;BME280;49026;52.600;4.694;2023-03-18T10:43:49;101013.59;;;17.14;72.58
62725;BME280;49026;52.600;4.694;2023-03-18T10:46:17;101016.88;;;17.72;72.64
62725;BME280;49026;52.600;4.694;2023-03-18T10:52:13;101021.22;;;19.01;67.27
62725;BME280;49026;52.600;4.694;2023-03-18T10:54:44;101018.81;;;19.34;69.04
62725;BME280;49026;52.600;4.694;2023-03-18T10:57:18;101022.31;;;18.73;68.45
62725;BME280;49026;52.600;4.694;2023-03-18T10:59:44;101018.13;;;18.06;68.85
62725;BME280;49026;52.600;4.694;2023-03-18T11:04:44;101030.03;;;17.33;71.55
62725;BME280;49026;52.600;4.694;2023-03-18T11:07:19;101023.91;;;16.91;72.14
62725;BME280;49026;52.600;4.694;2023-03-18T11:09:46;101022.69;;;16.68;72.84
62725;BME280;49026;52.600;4.694;2023-03-18T11:14:48;101024.97;;;16.31;72.82
62725;BME280;49026;52.600;4.694;2023-03-18T11:17:21;101025.03;;;16.15;73.03
62725;BME280;49026;52.600;4.694;2023-03-18T11:20:03;101017.56;;;16.07;73.04
62725;BME280;49026;52.600;4.694;2023-03-18T11:22:33;101011.59;;;16.04;73.45
62725;BME280;49026;52.600;4.694;2023-03-18T11:27:38;101012.28;;;16.07;72.56
62725;BME280;49026;52.600;4.694;2023-03-18T11:30:14;101011.41;;;16.21;72.77
62725;BME280;49026;52.600;4.694;2023-03-18T11:32:55;101014.63;;;16.55;72.46
62725;BME280;49026;52.600;4.694;2023-03-18T11:35:23;101009.94;;;17.02;71.84
62725;BME280;49026;52.600;4.694;2023-03-18T11:37:49;101011.06;;;17.39;68.37
62725;BME280;49026;52.600;4.694;2023-03-18T11:40:24;101002.00;;;17.42;63.83
62725;BME280;49026;52.600;4.694;2023-03-18T11:42:58;101013.72;;;17.39;67.89
62725;BME280;49026;52.600;4.694;2023-03-18T11:47:56;101006.63;;;17.26;69.13
62725;BME280;49026;52.600;4.694;2023-03-18T11:50:24;101009.50;;;17.22;67.54
62725;BME280;49026;52.600;4.694;2023-03-18T11:55:21;101009.69;;;17.47;68.37
62725;BME280;49026;52.600;4.694;2023-03-18T12:06:25;101002.78;;;17.97;67.26
62725;BME280;49026;52.600;4.694;2023-03-18T12:09:05;101001.66;;;17.74;63.77
62725;BME280;49026;52.600;4.694;2023-03-18T12:22:38;101003.06;;;16.71;67.67
62725;BME280;49026;52.600;4.694;2023-03-18T12:38:53;100996.81;;;16.28;67.02
62725;BME280;49026;52.600;4.694;2023-03-18T12:44:14;100991.16;;;16.20;68.28
62725;BME280;49026;52.600;4.694;2023-03-18T12:47:05;100990.09;;;15.94;67.42
62725;BME280;49026;52.600;4.694;2023-03-18T12:49:35;100988.63;;;15.74;67.89
62725;BME280;49026;52.600;4.694;2023-03-18T12:52:10;100985.91;;;15.60;67.87
62725;BME280;49026;52.600;4.694;2023-03-18T12:57:19;100979.94;;;15.56;68.20
62725;BME280;49026;52.600;4.694;2023-03-18T13:00:00;100983.19;;;15.61;68.46
62725;BME280;49026;52.600;4.694;2023-03-18T13:05:05;100980.75;;;15.72;67.58
62725;BME280;49026;52.600;4.694;2023-03-18T13:07:48;100982.28;;;15.77;68.39
62725;BME280;49026;52.600;4.694;2023-03-18T13:10:21;100986.38;;;15.82;67.88
62725;BME280;49026;52.600;4.694;2023-03-18T13:12:53;100985.91;;;15.76;67.73
62725;BME280;49026;52.600;4.694;2023-03-18T13:15:25;100990.09;;;15.64;67.92
62725;BME280;49026;52.600;4.694;2023-03-18T13:17:56;100989.31;;;15.62;68.46
62725;BME280;49026;52.600;4.694;2023-03-18T13:20:29;100988.97;;;15.68;68.69
62725;BME280;49026;52.600;4.694;2023-03-18T13:40:25;100993.34;;;16.28;66.86
62725;BME280;49026;52.600;4.694;2023-03-18T13:42:58;100991.53;;;16.28;67.33
62725;BME280;49026;52.600;4.694;2023-03-18T13:45:37;100999.84;;;16.65;67.35
62725;BME280;49026;52.600;4.694;2023-03-18T13:48:15;101000.22;;;17.15;65.52
62725;BME280;49026;52.600;4.694;2023-03-18T13:50:43;100990.78;;;17.51;64.46
62725;BME280;49026;52.600;4.694;2023-03-18T13:53:32;100995.50;;;17.73;63.69
62725;BME280;49026;52.600;4.694;2023-03-18T13:56:04;100982.78;;;18.17;64.94
62725;BME280;49026;52.600;4.694;2023-03-18T13:58:44;100988.53;;;18.37;63.88
62725;BME280;49026;52.600;4.694;2023-03-18T14:04:43;100983.94;;;17.34;58.45
62725;BME280;49026;52.600;4.694;2023-03-18T14:15:43;100977.53;;;17.64;66.20
62725;BME280;49026;52.600;4.694;2023-03-18T14:17:54;100967.59;;;19.30;63.27
62725;BME280;49026;52.600;4.694;2023-03-18T14:20:43;100955.06;;;20.47;56.58
62725;BME280;49026;52.600;4.694;2023-03-18T14:23:31;100949.94;;;20.78;58.17
62725;BME280;49026;52.600;4.694;2023-03-18T14:26:22;100949.34;;;21.06;46.22
62725;BME280;49026;52.600;4.694;2023-03-18T14:39:13;100942.09;;;20.20;57.40
62725;BME280;49026;52.600;4.694;2023-03-18T14:41:43;100939.44;;;20.08;56.25
62725;BME280;49026;52.600;4.694;2023-03-18T14:44:17;100943.41;;;20.48;49.81
62725;BME280;49026;52.600;4.694;2023-03-18T14:46:45;100939.06;;;20.35;57.31
62725;BME280;49026;52.600;4.694;2023-03-18T14:51:59;100940.16;;;20.22;54.26
62725;BME280;49026;52.600;4.694;2023-03-18T14:54:30;100934.94;;;20.31;56.63
62725;BME280;49026;52.600;4.694;2023-03-18T14:57:01;100933.84;;;20.34;56.15
62725;BME280;49026;52.600;4.694;2023-03-18T14:59:28;100938.69;;;20.29;56.60
62725;BME280;49026;52.600;4.694;2023-03-18T15:01:53;100925.84;;;20.34;56.65
62725;BME280;49026;52.600;4.694;2023-03-18T15:04:24;100942.84;;;19.63;56.90
62725;BME280;49026;52.600;4.694;2023-03-18T15:06:51;100932.88;;;19.54;58.99
62725;BME280;49026;52.600;4.694;2023-03-18T15:09:23;100930.19;;;19.78;56.14
62725;BME280;49026;52.600;4.694;2023-03-18T15:11:51;100922.31;;;19.99;53.62